Time;durP1;ratioP1;P1;durP2;ratioP2;P2;SDS_P1;SDS_P2;PMS_P1;PMS_P2;Temp;Humidity;BMP_temperature;BMP_pressure;BME280_temperature;BME280_humidity;BME280_pressure;Samples;Min_cycle;Max_cycle;Signal;HPM_P1;HPM_P2
2022/09/28 00:00:53;;;;;;;10.43;5.55;;;;;;;;;;5034200;28;20034;-70
2022/09/28 00:03:19;;;;;;;6.40;5.07;;;;;;;;;;5034249;28;20037;-71
2022/09/28 00:05:46;;;;;;;10.95;6.20;;;;;;;;;;5033965;28;20045;-71
2022/09/28 00:08:12;;;;;;;11.00;5.97;;;9.20;99.90;;;;;;5033927;28;20046;-71
2022/09/28 00:10:42;;;;;;;8.15;5.93;;;;;;;;;;5033601;28;20088;-70
2022/09/28 00:13:08;;;;;;;9.15;5.88;;;;;;;;;;5017920;28;20068;-70
2022/09/28 00:15:34;;;;;;;9.18;6.20;;;;;;;;;;5033742;28;20131;-71
2022/09/28 00:18:00;;;;;;;11.65;7.82;;;;;;;;;;5017243;28;20060;-71
2022/09/28 00:20:26;;;;;;;9.13;6.28;;;;;;;;;;5033332;28;20091;-70
2022/09/28 00:22:52;;;;;;;8.65;6.07;;;;;;;;;;5033493;28;20501;-71
2022/09/28 00:25:20;;;;;;;9.68;5.90;;;;;;;;;;5016840;28;20048;-71
2022/09/28 00:27:50;;;;;;;9.38;6.32;;;;;;;;;;5033690;28;20184;-70
2022/09/28 00:30:16;;;;;;;15.50;6.00;;;;;;;;;;5032760;28;20033;-70
2022/09/28 00:32:42;;;;;;;7.90;5.80;;;;;;;;;;5017105;28;20056;-71
2022/09/28 00:35:09;;;;;;;8.98;6.00;;;;;;;;;;5033630;28;20496;-71
2022/09/28 00:37:35;;;;;;;9.90;6.10;;;;;;;;;;5033459;28;20490;-71
2022/09/28 00:40:02;;;;;;;9.32;6.32;;;9.40;99.90;;;;;;5033069;28;20068;-71
2022/09/28 00:42:28;;;;;;;11.88;7.18;;;;;;;;;;5016550;28;20041;-70
2022/09/28 00:44:58;;;;;;;11.13;7.50;;;9.40;99.90;;;;;;5033605;28;20390;-71
2022/09/28 00:47:30;;;;;;;11.27;6.63;;;9.50;99.90;;;;;;5032924;28;20124;-70
2022/09/28 00:50:03;;;;;;;10.13;6.57;;;;;;;;;;5033070;28;20054;-71
2022/09/28 00:52:38;;;;;;;11.52;8.00;;;9.30;99.90;;;;;;5032497;28;20042;-71
2022/09/28 00:55:08;;;;;;;16.80;8.38;;;9.50;99.90;;;;;;5033066;28;20091;-71
2022/09/28 00:57:36;;;;;;;11.48;7.13;;;9.20;99.90;;;;;;5016085;28;20409;-70
2022/09/28 01:00:05;;;;;;;10.95;6.65;;;9.20;99.90;;;;;;5016325;28;20045;-70
2022/09/28 01:02:31;;;;;;;10.07;7.10;;;;;;;;;;5032863;28;20040;-70
2022/09/28 01:04:58;;;;;;;11.55;7.30;;;;;;;;;;5016451;28;20041;-70
2022/09/28 01:07:24;;;;;;;9.93;7.00;;;;;;;;;;5016179;28;20049;-71
2022/09/28 01:09:52;;;;;;;11.65;6.93;;;9.50;99.90;;;;;;5033026;28;20041;-71
2022/09/28 01:12:18;;;;;;;12.30;7.45;;;;;;;;;;5032466;28;20051;-71
2022/09/28 01:14:45;;;;;;;11.85;6.68;;;;;;;;;;5032775;28;20379;-71
2022/09/28 01:17:14;;;;;;;10.52;6.78;;;;;;;;;;5016034;28;20038;-71
2022/09/28 01:20:18;;;;;;;13.35;7.15;;;9.40;99.90;;;;;;5032358;28;20041;-71
2022/09/28 01:22:59;;;;;;;11.10;6.35;;;;;;;;;;5017038;28;20140;-71
2022/09/28 01:25:38;;;;;;;14.25;6.90;;;;;;;;;;5032759;28;20041;-70
2022/09/28 01:28:05;;;;;;;9.27;6.15;;;;;;;;;;5032302;28;20041;-70
2022/09/28 01:30:41;;;;;;;11.90;6.05;;;9.20;99.90;;;;;;5032535;28;20045;-71
2022/09/28 01:33:15;;;;;;;10.90;6.85;;;9.40;99.90;;;;;;5016089;28;20044;-71
2022/09/28 01:35:53;;;;;;;11.57;6.18;;;9.30;99.90;;;;;;5032665;28;20049;-71
2022/09/28 01:38:19;;;;;;;10.32;5.72;;;;;;;;;;5031749;28;20438;-71
2022/09/28 01:40:47;;;;;;;10.23;6.30;;;;;;;;;;5032077;28;20088;-71
2022/09/28 01:43:15;;;;;;;11.32;6.15;;;;;;;;;;5031149;28;20037;-71
2022/09/28 01:46:00;;;;;;;11.77;6.53;;;9.50;99.90;;;;;;5015604;28;20132;-71
2022/09/28 01:48:30;;;;;;;11.13;5.82;;;;;;;;;;5031767;28;20046;-71
2022/09/28 01:50:59;;;;;;;10.18;5.88;;;9.30;99.90;;;;;;5031984;28;20362;-71
2022/09/28 01:53:29;;;;;;;11.80;5.72;;;;;;;;;;5031966;28;20094;-71
2022/09/28 01:55:59;;;;;;;10.38;5.93;;;9.10;99.90;;;;;;5015580;28;20042;-71
2022/09/28 01:58:32;;;;;;;8.18;5.38;;;;;;;;;;5031679;28;20037;-71
2022/09/28 02:01:03;;;;;;;12.02;5.88;;;;;;;;;;5031948;28;20077;-71
2022/09/28 02:03:32;;;;;;;9.10;5.28;;;;;;;;;;5031861;28;20049;-71
2022/09/28 02:06:07;;;;;;;9.75;5.60;;;9.20;99.90;;;;;;5031746;28;20042;-71
2022/09/28 02:08:42;;;;;;;9.27;5.45;;;;;;;;;;5031569;28;20072;-71
2022/09/28 02:11:13;;;;;;;8.30;5.53;;;9.30;99.90;;;;;;5015219;28;20076;-71
2022/09/28 02:13:48;;;;;;;7.10;5.20;;;9.30;99.90;;;;;;5031793;28;20429;-71
2022/09/28 02:16:14;;;;;;;10.77;5.53;;;;;;;;;;5032029;28;20450;-71
2022/09/28 02:18:41;;;;;;;8.90;5.57;;;;;;;;;;5031266;28;20477;-71
2022/09/28 02:21:27;;;;;;;7.90;5.57;;;;;;;;;;5015248;28;20043;-71
2022/09/28 02:23:56;;;;;;;9.32;6.20;;;9.30;99.90;;;;;;5018093;28;20490;-71
2022/09/28 02:26:26;;;;;;;12.68;6.70;;;;;;;;;;5012170;28;20560;-71
2022/09/28 02:28:52;;;;;;;11.75;6.15;;;;;;;;;;5031579;28;20041;-71
2022/09/28 02:31:19;;;;;;;8.32;5.72;;;;;;;;;;5031511;28;20107;-71
2022/09/28 02:33:46;;;;;;;8.77;5.72;;;;;;;;;;5031731;28;20042;-71
2022/09/28 02:36:12;;;;;;;10.10;5.80;;;;;;;;;;5031628;28;20046;-71
2022/09/28 02:38:38;;;;;;;10.10;5.47;;;;;;;;;;5031185;28;20050;-71
2022/09/28 02:41:23;;;;;;;9.68;6.60;;;;;;;;;;5031250;28;20113;-71
2022/09/28 02:43:49;;;;;;;9.18;5.57;;;;;;;;;;5014843;28;20078;-70
2022/09/28 02:46:38;;;;;;;10.38;5.50;;;;;;;;;;5031592;28;20107;-71
2022/09/28 02:49:40;;;;;;;7.28;4.88;;;9.20;99.90;;;;;;5042021;28;20481;-71
2022/09/28 02:52:26;;;;;;;8.88;5.93;;;;;;;;;;5026500;28;20053;-71
2022/09/28 02:54:52;;;;;;;7.20;5.22;;;;;;;;;;5035040;28;20440;-71
2022/09/28 02:57:19;;;;;;;7.20;5.50;;;;;;;;;;5035257;28;20424;-70
2022/09/28 02:59:57;;;;;;;10.45;5.20;;;;;;;;;;5018827;28;20033;-71
2022/09/28 03:02:27;;;;;;;8.52;5.10;;;;;;;;;;5035043;28;20038;-71
2022/09/28 03:05:19;;;;;;;8.55;5.10;;;9.20;99.90;;;;;;5035152;28;20046;-71
2022/09/28 03:07:45;;;;;;;9.23;5.10;;;;;;;;;;5018022;28;20041;-71
2022/09/28 03:10:37;;;;;;;6.78;4.68;;;;;;;;;;5035058;28;20117;-70
2022/09/28 03:13:04;;;;;;;5.97;4.45;;;9.20;99.90;;;;;;5049498;28;20049;-71
2022/09/28 03:15:32;;;;;;;9.95;5.18;;;;;;;;;;5035116;28;20053;-71
2022/09/28 03:17:58;;;;;;;8.80;5.20;;;;;;;;;;5034569;28;20041;-72
2022/09/28 03:20:27;;;;;;;9.25;5.43;;;;;;;;;;5035124;28;20037;-72
2022/09/28 03:22:54;;;;;;;8.63;4.70;;;;;;;;;;5034927;28;20046;-72
2022/09/28 03:25:23;;;;;;;7.35;5.03;;;;;;;;;;5034878;28;20052;-72
2022/09/28 03:27:49;;;;;;;8.82;5.78;;;;;;;;;;5034480;28;20553;-72
2022/09/28 03:30:15;;;;;;;7.38;5.15;;;;;;;;;;5017953;28;20057;-71
2022/09/28 03:32:41;;;;;;;6.43;4.60;;;;;;;;;;5018360;28;20041;-71
2022/09/28 03:35:08;;;;;;;8.25;4.85;;;9.50;99.90;;;;;;5034213;28;20490;-71
2022/09/28 03:37:34;;;;;;;9.05;5.18;;;;;;;;;;5034276;28;20045;-71
2022/09/28 03:40:00;;;;;;;10.57;5.03;;;;;;;;;;5034375;28;20056;-71
2022/09/28 03:42:27;;;;;;;10.40;5.03;;;;;;;;;;5017967;28;20473;-71
2022/09/28 03:44:53;;;;;;;9.02;4.97;;;;;;;;;;5034374;28;20047;-71
2022/09/28 03:47:20;;;;;;;8.00;4.65;;;;;;;;;;5034250;28;20073;-71
2022/09/28 03:49:46;;;;;;;6.70;4.57;;;;;;;;;;5034010;28;20091;-71
2022/09/28 03:52:13;;;;;;;9.77;4.70;;;9.20;99.90;;;;;;5034780;28;20441;-71
2022/09/28 03:54:39;;;;;;;8.50;4.45;;;;;;;;;;5034177;28;20100;-71
2022/09/28 03:57:05;;;;;;;5.40;4.55;;;;;;;;;;5034171;28;20133;-71
2022/09/28 03:59:32;;;;;;;6.20;4.15;;;;;;;;;;5034074;28;20045;-72
2022/09/28 04:01:58;;;;;;;8.48;4.68;;;;;;;;;;5034620;28;20144;-72
2022/09/28 04:04:24;;;;;;;7.60;4.88;;;;;;;;;;5033139;28;20103;-72
2022/09/28 04:06:50;;;;;;;14.88;6.13;;;;;;;;;;5033055;28;20056;-72
2022/09/28 04:09:16;;;;;;;7.55;4.65;;;;;;;;;;5033615;28;20049;-72
2022/09/28 04:11:42;;;;;;;6.90;4.93;;;;;;;;;;5034150;28;20461;-71
2022/09/28 04:14:08;;;;;;;6.53;4.55;;;;;;;;;;5033689;28;20045;-71
2022/09/28 04:16:35;;;;;;;8.05;4.45;;;;;;;;;;5033785;28;20049;-71
2022/09/28 04:19:02;;;;;;;8.82;4.00;;;;;;;;;;5033551;28;20041;-71
2022/09/28 04:21:28;;;;;;;9.57;4.72;;;;;;;;;;5033838;28;20053;-71
2022/09/28 04:23:54;;;;;;;9.23;4.90;;;;;;;;;;5033556;28;20500;-71
2022/09/28 04:26:22;;;;;;;7.97;4.57;;;9.40;99.90;;;;;;5017196;28;20044;-72
2022/09/28 04:31:40;;;;;;;6.80;4.70;;;;;;;;;;5042358;28;20413;-71
2022/09/28 04:34:07;;;;;;;10.27;4.57;;;;;;;;;;5033352;28;20382;-71
2022/09/28 04:36:33;;;;;;;5.57;4.22;;;;;;;;;;5033497;28;20041;-71
2022/09/28 04:38:59;;;;;;;9.57;4.07;;;;;;;;;;5016522;28;20053;-71
2022/09/28 04:41:25;;;;;;;7.72;4.30;;;;;;;;;;5031961;28;20041;-71
2022/09/28 04:43:52;;;;;;;7.45;4.13;;;;;;;;;;5033291;28;20037;-71
2022/09/28 04:46:18;;;;;;;23.17;3.90;;;;;;;;;;5033200;28;20079;-71
2022/09/28 04:48:44;;;;;;;8.05;4.05;;;;;;;;;;5016927;28;20077;-71
2022/09/28 04:51:11;;;;;;;8.73;4.20;;;;;;;;;;5032780;28;20048;-71
2022/09/28 04:53:37;;;;;;;7.93;3.75;;;;;;;;;;5033298;28;20041;-71
2022/09/28 04:56:03;;;;;;;5.05;3.80;;;;;;;;;;5032197;28;20047;-71
2022/09/28 04:58:29;;;;;;;6.78;3.90;;;;;;;;;;5033021;28;20033;-71
2022/09/28 05:01:00;;;;;;;7.57;3.65;;;;;;;;;;5032811;28;20041;-71
2022/09/28 05:03:26;;;;;;;7.60;3.70;;;;;;;;;;5032797;28;20037;-71
2022/09/28 05:05:53;;;;;;;5.90;3.60;;;;;;;;;;5032466;28;20486;-71
2022/09/28 05:08:19;;;;;;;6.85;3.58;;;;;;;;;;5033221;28;20041;-71
2022/09/28 05:10:45;;;;;;;5.40;3.20;;;;;;;;;;5012838;28;20046;-71
2022/09/28 05:13:12;;;;;;;5.68;3.33;;;;;;;;;;5021259;28;20041;-71
2022/09/28 05:15:39;;;;;;;5.57;3.10;;;;;;;;;;5032266;28;20046;-71
2022/09/28 05:18:06;;;;;;;7.75;3.70;;;;;;;;;;5032230;28;20056;-71
2022/09/28 05:20:32;;;;;;;9.15;3.47;;;;;;;;;;5032345;28;20528;-71
2022/09/28 05:22:58;;;;;;;9.30;3.47;;;;;;;;;;5032091;28;20061;-71
2022/09/28 05:25:24;;;;;;;7.35;3.30;;;;;;;;;;5032096;28;20040;-71
2022/09/28 05:27:56;;;;;;;7.40;3.30;;;;;;;;;;5032333;28;20048;-71
2022/09/28 05:30:23;;;;;;;;;;;;;;;;;;5016457;28;20119;-71
2022/09/28 05:32:52;;;;;;;5.90;3.60;;;;;;;;;;5032190;28;19923;-71
2022/09/28 05:35:18;;;;;;;6.82;3.30;;;;;;;;;;5031881;28;20055;-71
2022/09/28 05:37:45;;;;;;;8.43;3.70;;;;;;;;;;5032548;28;20077;-71
2022/09/28 05:40:12;;;;;;;10.25;3.65;;;;;;;;;;5031719;28;20049;-71
2022/09/28 05:42:38;;;;;;;7.00;3.63;;;;;;;;;;5032365;28;20078;-71
2022/09/28 05:45:05;;;;;;;8.13;4.25;;;;;;;;;;5033284;28;20468;-71
2022/09/28 05:47:31;;;;;;;6.57;3.55;;;;;;;;;;5032325;28;20083;-71
2022/09/28 05:49:57;;;;;;;6.25;3.47;;;;;;;;;;5034007;28;20044;-71
2022/09/28 05:52:23;;;;;;;7.88;3.45;;;;;;;;;;5031793;28;20049;-71
2022/09/28 05:54:49;;;;;;;5.15;3.50;;;;;;;;;;5031967;28;20089;-71
2022/09/28 05:57:15;;;;;;;6.38;3.75;;;;;;;;;;5031859;28;20412;-71
2022/09/28 05:59:41;;;;;;;5.75;3.45;;;;;;;;;;5032106;28;20037;-71
2022/09/28 06:02:07;;;;;;;4.25;3.22;;;;;;;;;;5031626;28;20053;-71
2022/09/28 06:04:33;;;;;;;6.13;3.72;;;;;;;;;;5014856;28;20116;-70
2022/09/28 06:06:59;;;;;;;7.70;3.85;;;;;;;;;;5031635;28;20041;-70
2022/09/28 06:09:25;;;;;;;6.60;3.95;;;;;;;;;;5015317;28;20053;-70
2022/09/28 06:11:51;;;;;;;5.50;3.95;;;;;;;;;;5031732;28;20045;-70
2022/09/28 06:14:18;;;;;;;5.55;4.07;;;;;;;;;;5032054;28;20064;-69
2022/09/28 06:16:44;;;;;;;7.68;4.57;;;;;;;;;;5031396;28;20107;-69
2022/09/28 06:19:10;;;;;;;6.78;4.40;;;;;;;;;;5015628;28;20100;-74
2022/09/28 06:21:36;;;;;;;5.97;3.72;;;;;;;;;;5031399;28;20043;-70
2022/09/28 06:24:03;;;;;;;7.53;4.10;;;8.80;99.90;;;;;;5031779;28;20505;-69
2022/09/28 06:26:29;;;;;;;10.18;4.60;;;;;;;;;;5031697;28;20131;-70
2022/09/28 06:28:56;;;;;;;7.97;4.57;;;;;;;;;;5033123;28;20083;-70
2022/09/28 06:31:25;;;;;;;7.88;4.10;;;;;;;;;;5032652;28;20037;-75
2022/09/28 06:33:51;;;;;;;10.07;4.05;;;;;;;;;;5032964;28;20045;-75
2022/09/28 06:36:18;;;;;;;7.07;4.20;;;;;;;;;;5035255;28;20053;-75
2022/09/28 06:38:44;;;;;;;10.20;4.63;;;;;;;;;;5035859;28;20560;-75
2022/09/28 06:41:11;;;;;;;7.72;4.85;;;;;;;;;;5019261;28;20055;-75
2022/09/28 06:43:40;;;;;;;11.65;5.40;;;;;;;;;;5019068;28;20030;-75
2022/09/28 06:46:12;;;;;;;12.85;5.30;;;;;;;;;;5018982;28;20041;-75
2022/09/28 06:48:39;;;;;;;11.32;5.53;;;;;;;;;;5016078;28;20100;-75
2022/09/28 06:51:05;;;;;;;9.48;4.97;;;;;;;;;;5015832;28;20044;-74
2022/09/28 06:53:32;;;;;;;8.73;4.68;;;8.90;99.90;;;;;;5034088;28;20374;-75
2022/09/28 06:55:59;;;;;;;7.90;4.40;;;;;;;;;;5035125;28;20045;-74
2022/09/28 06:58:27;;;;;;;11.32;4.78;;;;;;;;;;5018709;28;20038;-74
2022/09/28 07:00:58;;;;;;;9.35;3.97;;;;;;;;;;5035587;28;20509;-74
2022/09/28 07:03:24;;;;;;;8.98;3.10;;;;;;;;;;5035122;28;20042;-74
2022/09/28 07:05:52;;;;;;;7.88;4.03;;;;;;;;;;5034525;28;20034;-75
2022/09/28 07:08:20;;;;;;;6.35;3.90;;;;;;;;;;5034706;28;20090;-74
2022/09/28 07:10:47;;;;;;;6.97;3.30;;;;;;;;;;5035164;28;20491;-74
2022/09/28 07:13:15;;;;;;;6.70;3.20;;;9.50;99.90;;;;;;5034912;28;20049;-75
2022/09/28 07:15:42;;;;;;;3.67;3.00;;;;;;;;;;5034712;28;20065;-75
2022/09/28 07:18:08;;;;;;;5.75;3.30;;;;;;;;;;5034766;28;20042;-74
2022/09/28 07:20:34;;;;;;;8.27;3.65;;;;;;;;;;5034615;28;20138;-74
2022/09/28 07:23:03;;;;;;;6.50;3.58;;;9.60;99.90;;;;;;5017355;28;20087;-75
2022/09/28 07:25:31;;;;;;;7.78;3.85;;;9.70;99.90;;;;;;5031453;28;20073;-74
2022/09/28 07:28:00;;;;;;;8.52;3.45;;;;;;;;;;5028180;28;20052;-75
2022/09/28 07:30:28;;;;;;;5.68;3.25;;;9.60;99.90;;;;;;5049988;28;20041;-75
2022/09/28 07:32:54;;;;;;;5.47;3.65;;;;;;;;;;5032390;28;20033;-74
2022/09/28 07:35:21;;;;;;;6.55;4.00;;;;;;;;;;5029856;28;20056;-74
2022/09/28 07:37:47;;;;;;;5.78;4.15;;;;;;;;;;5031570;28;20049;-74
2022/09/28 07:43:05;;;;;;;5.35;3.58;;;9.90;99.90;;;;;;5030452;28;20073;-74
2022/09/28 07:45:34;;;;;;;9.07;3.70;;;;;;;;;;5033628;28;20115;-77
2022/09/28 07:48:01;;;;;;;12.38;4.22;;;;;;;;;;5028553;28;20385;-73
2022/09/28 07:50:27;;;;;;;5.32;4.15;;;;;;;;;;5033696;28;20045;-74
2022/09/28 07:52:54;;;;;;;7.90;4.40;;;10.00;99.90;;;;;;5026305;28;20044;-75
2022/09/28 07:55:21;;;;;;;8.23;4.22;;;;;;;;;;5050072;28;20038;-75
2022/09/28 07:57:47;;;;;;;9.10;4.53;;;;;;;;;;5033403;28;20533;-74
2022/09/28 08:00:13;;;;;;;12.23;4.50;;;;;;;;;;5011806;28;20068;-80
2022/09/28 08:02:39;;;;;;;13.18;3.90;;;;;;;;;;5033458;28;20075;-74
2022/09/28 08:05:08;;;;;;;10.20;4.15;;;;;;;;;;5032479;28;20064;-74
2022/09/28 08:07:37;;;;;;;13.88;5.07;;;;;;;;;;5033848;28;20111;-74
2022/09/28 08:10:03;;;;;;;5.72;3.40;;;10.20;99.90;;;;;;5032951;28;20053;-74
2022/09/28 08:12:29;;;;;;;5.70;2.40;;;;;;;;;;5016897;28;20497;-74
2022/09/28 08:14:55;;;;;;;5.20;2.67;;;;;;;;;;5031730;28;20102;-74
2022/09/28 08:17:21;;;;;;;10.80;2.90;;;;;;;;;;5029458;28;20501;-74
2022/09/28 08:22:32;;;;;;;11.05;4.50;;;;;;;;;;5031625;28;20045;-74
2022/09/28 08:24:58;;;;;;;5.60;2.10;;;;;;;;;;5032599;28;20120;-74
2022/09/28 08:27:24;;;;;;;10.80;2.20;;;;;;;;;;5033476;28;20080;-74
2022/09/28 08:29:50;;;;;;;5.53;1.90;;;;;;;;;;5029547;28;20045;-73
2022/09/28 08:32:17;;;;;;;4.25;1.75;;;;;;;;;;5033717;28;20045;-73
2022/09/28 08:34:43;;;;;;;7.63;2.90;;;;;;;;;;5016729;28;20048;-73
2022/09/28 08:37:09;;;;;;;6.80;1.95;;;;;;;;;;5033115;28;20072;-74
2022/09/28 08:39:36;;;;;;;4.70;1.50;;;;;;;;;;5032493;28;20057;-73
2022/09/28 08:42:05;;;;;;;6.75;1.80;;;;;;;;;;5033274;28;20113;-73
2022/09/28 08:44:44;;;;;;;5.82;1.40;;;11.00;99.90;;;;;;5033651;28;20037;-73
2022/09/28 08:48:42;;;;;;;3.85;1.50;;;;;;;;;;5033505;28;20041;-73
2022/09/28 08:50:04;;;;;;;3.75;1.30;;;;;;;;;;5050116;28;20053;-73
2022/09/28 08:52:33;;;;;;;1.35;1.10;;;;;;;;;;5032727;28;20374;-73
2022/09/28 08:55:25;;;;;;;4.32;1.25;;;11.20;99.90;;;;;;5033526;28;20049;-73
2022/09/28 08:57:55;;;;;;;4.15;1.10;;;;;;;;;;5033308;28;20490;-73
2022/09/28 09:00:32;;;;;;;2.22;1.05;;;;;;;;;;5033063;28;20120;-73
2022/09/28 09:02:58;;;;;;;5.00;1.30;;;;;;;;;;5033139;28;20041;-73
2022/09/28 09:05:37;;;;;;;3.08;1.30;;;;;;;;;;5033213;28;20037;-70
2022/09/28 09:08:28;;;;;;;7.10;1.05;;;11.70;99.90;;;;;;5032883;28;20041;-70
2022/09/28 09:10:57;;;;;;;2.85;1.00;;;;;;;;;;5032865;28;20045;-70
2022/09/28 09:13:35;;;;;;;3.03;1.00;;;;;;;;;;5033096;28;20111;-70
2022/09/28 09:16:15;;;;;;;3.50;1.15;;;11.80;99.90;;;;;;5032852;28;20045;-70
2022/09/28 09:19:13;;;;;;;3.00;0.93;;;12.00;99.90;;;;;;5032780;28;20489;-73
2022/09/28 09:21:54;;;;;;;4.93;0.77;;;11.60;99.90;;;;;;5010172;28;20045;-73
2022/09/28 09:24:30;;;;;;;1.33;0.68;;;;;;;;;;5032859;28;20164;-73
2022/09/28 09:27:05;;;;;;;4.80;0.70;;;12.00;99.90;;;;;;5032607;28;20124;-73
2022/09/28 09:29:43;;;;;;;2.67;0.82;;;;;;;;;;5032722;28;20052;-73
2022/09/28 09:32:18;;;;;;;0.60;0.60;;;;;;;;;;5032611;28;20123;-73
2022/09/28 09:34:56;;;;;;;2.03;0.80;;;;;;;;;;5033980;28;20096;-73
2022/09/28 09:37:34;;;;;;;2.25;0.85;;;12.20;99.90;;;;;;5032450;28;20041;-74
2022/09/28 09:40:26;;;;;;;4.93;1.00;;;;;;;;;;5032282;28;20056;-73
2022/09/28 09:42:55;;;;;;;2.15;0.70;;;;;;;;;;5029135;28;20414;-73
2022/09/28 09:45:44;;;;;;;1.55;0.85;;;12.00;99.90;;;;;;5032322;28;20045;-73
2022/09/28 09:48:33;;;;;;;0.85;0.85;;;12.20;99.90;;;;;;5032220;28;20120;-73
2022/09/28 09:51:07;;;;;;;2.67;0.82;;;12.30;99.90;;;;;;5032293;28;20091;-73
2022/09/28 09:53:40;;;;;;;6.65;0.90;;;12.10;99.90;;;;;;5032257;28;20506;-73
2022/09/28 09:56:18;;;;;;;2.08;0.70;;;12.40;99.90;;;;;;5032239;28;20041;-73
2022/09/28 09:58:46;;;;;;;1.67;0.70;;;;;;;;;;5032274;28;20073;-73
2022/09/28 10:01:14;;;;;;;3.03;0.80;;;;;;;;;;5032157;28;20482;-73
2022/09/28 10:03:41;;;;;;;1.25;0.68;;;;;;;;;;5031515;28;20041;-73
2022/09/28 10:06:18;;;;;;;1.17;0.80;;;12.40;99.90;;;;;;5033330;28;20048;-73
2022/09/28 10:08:47;;;;;;;0.98;0.80;;;;;;;;;;5032011;28;20038;-73
2022/09/28 10:11:19;;;;;;;1.67;0.90;;;12.70;99.90;;;;;;5031931;28;20044;-73
2022/09/28 10:13:47;;;;;;;1.95;0.70;;;;;;;;;;5032282;28;20060;-73
2022/09/28 10:16:16;;;;;;;4.10;0.70;;;12.80;99.90;;;;;;5032073;28;20048;-73
2022/09/28 10:18:43;;;;;;;1.38;0.70;;;;;;;;;;5031780;28;20057;-73
2022/09/28 10:21:18;;;;;;;3.72;1.00;;;13.10;99.90;;;;;;5032074;28;20100;-73
2022/09/28 10:23:46;;;;;;;2.58;1.00;;;;;;;;;;5015377;28;20067;-73
2022/09/28 10:26:14;;;;;;;1.73;0.60;;;;;;;;;;5031701;28;20075;-73
2022/09/28 10:28:40;;;;;;;2.25;0.70;;;;;;;;;;5032026;28;20046;-73
2022/09/28 10:31:37;;;;;;;3.80;0.88;;;13.60;99.90;;;;;;5031630;28;20041;-73
2022/09/28 10:34:04;;;;;;;2.97;0.60;;;;;;;;;;5031761;28;20045;-73
2022/09/28 10:36:44;;;;;;;6.85;0.80;;;13.40;99.90;;;;;;5031723;28;20049;-73
2022/09/28 10:39:31;;;;;;;0.95;0.52;;;13.10;99.90;;;;;;5031523;28;20057;-74
2022/09/28 10:42:01;;;;;;;2.65;0.60;;;12.90;99.90;;;;;;5031843;28;20072;-73
2022/09/28 10:44:27;;;;;;;1.40;0.68;;;;;;;;;;5015349;28;20045;-73
2022/09/28 10:46:59;;;;;;;3.28;0.88;;;;;;;;;;5031982;28;20397;-73
2022/09/28 10:49:27;;;;;;;2.65;0.70;;;;;;;;;;5031843;28;20041;-73
2022/09/28 10:51:55;;;;;;;1.23;0.77;;;;;;;;;;5031666;28;20117;-73
2022/09/28 10:54:21;;;;;;;3.40;0.80;;;;;;;;;;5031369;28;20045;-73
2022/09/28 10:56:48;;;;;;;3.22;0.52;;;13.10;99.90;;;;;;5031263;28;20041;-73
2022/09/28 10:59:29;;;;;;;2.65;0.70;;;13.20;99.90;;;;;;5031544;28;20040;-73
2022/09/28 11:02:02;;;;;;;1.63;0.65;;;13.10;99.90;;;;;;5031604;28;20500;-73
2022/09/28 11:04:39;;;;;;;0.60;0.60;;;13.10;99.90;;;;;;5031394;28;20528;-73
2022/09/28 11:07:13;;;;;;;4.85;0.90;;;;;;;;;;5032022;28;20480;-73
2022/09/28 11:09:41;;;;;;;0.95;0.50;;;13.30;99.90;;;;;;5031566;28;20046;-73
2022/09/28 11:12:13;;;;;;;3.70;0.80;;;;;;;;;;5031498;28;20052;-73
2022/09/28 11:14:42;;;;;;;2.47;0.65;;;;;;;;;;5032691;28;20077;-73
2022/09/28 11:17:16;;;;;;;1.23;0.60;;;13.40;99.90;;;;;;5051670;28;20128;-73
2022/09/28 11:19:42;;;;;;;3.00;0.63;;;;;;;;;;5035089;28;20092;-73
2022/09/28 11:22:20;;;;;;;0.80;0.68;;;;;;;;;;5035323;28;20389;-73
2022/09/28 11:24:48;;;;;;;1.85;0.60;;;13.40;99.90;;;;;;5035035;28;20052;-73
2022/09/28 11:27:32;;;;;;;1.45;0.60;;;;;;;;;;5034939;28;20049;-73
2022/09/28 11:29:58;;;;;;;3.25;0.90;;;;;;;;;;5035013;28;20053;-73
2022/09/28 11:32:27;;;;;;;1.92;0.68;;;;;;;;;;5035179;28;20053;-73
2022/09/28 11:34:57;;;;;;;1.20;0.80;;;13.30;99.90;;;;;;5034957;28;20118;-73
2022/09/28 11:37:47;;;;;;;1.80;0.68;;;13.00;99.90;;;;;;5018276;28;20045;-73
2022/09/28 11:40:23;;;;;;;3.63;0.85;;;;;;;;;;5034510;28;20053;-74
2022/09/28 11:42:49;;;;;;;3.53;0.70;;;;;;;;;;5034601;28;20033;-73
2022/09/28 11:45:15;;;;;;;2.15;1.23;;;;;;;;;;5018444;28;20037;-73
2022/09/28 11:47:44;;;;;;;1.15;0.60;;;;;;;;;;5018392;28;20072;-73
2022/09/28 11:50:17;;;;;;;1.20;0.57;;;12.90;99.90;;;;;;5034498;28;20041;-73
2022/09/28 11:52:54;;;;;;;1.67;0.70;;;;;;;;;;5034775;28;20142;-73
2022/09/28 11:55:56;;;;;;;0.52;0.52;;;13.10;99.90;;;;;;5034372;28;20555;-73
2022/09/28 11:58:42;;;;;;;2.03;0.65;;;;;;;;;;5034569;28;20063;-73
2022/09/28 12:01:34;;;;;;;0.63;0.50;;;13.50;99.90;;;;;;5034309;28;20045;-73
2022/09/28 12:04:08;;;;;;;1.55;0.70;;;;;;;;;;5034418;28;20382;-73
2022/09/28 12:06:44;;;;;;;3.10;0.60;;;13.90;99.90;;;;;;5034187;28;20048;-73
2022/09/28 12:09:22;;;;;;;3.63;0.80;;;;;;;;;;5034166;28;20054;-73
2022/09/28 12:11:49;;;;;;;1.70;0.60;;;;;;;;;;5034103;28;20052;-73
2022/09/28 12:14:38;;;;;;;2.10;0.70;;;14.80;99.90;;;;;;5034239;28;20042;-73
2022/09/28 12:17:15;;;;;;;4.13;0.63;;;15.10;99.90;;;;;;5033931;28;20046;-73
2022/09/28 12:19:50;;;;;;;1.17;0.60;;;15.50;99.90;;;;;;5033869;28;20049;-73
2022/09/28 12:22:37;;;;;;;2.47;0.52;;;16.00;98.70;;;;;;5033874;28;20041;-73
2022/09/28 12:25:09;;;;;;;1.77;0.68;;;16.00;98.70;;;;;;5033866;28;20124;-73
2022/09/28 12:27:56;;;;;;;2.55;0.52;;;16.50;97.70;;;;;;5033140;28;20350;-73
2022/09/28 12:30:26;;;;;;;0.60;0.50;;;;;;;;;;5033849;28;20061;-73
2022/09/28 12:33:12;;;;;;;0.73;0.70;;;16.40;97.40;;;;;;5033679;28;20056;-73
2022/09/28 12:35:38;;;;;;;2.88;0.77;;;;;;;;;;5017130;28;20045;-74
2022/09/28 12:38:26;;;;;;;5.78;0.70;;;15.70;97.30;;;;;;5033567;28;20045;-73
2022/09/28 12:41:05;;;;;;;1.38;0.50;;;;;;;;;;5016958;28;20056;-73
2022/09/28 12:43:56;;;;;;;0.90;0.40;;;15.20;97.80;;;;;;5050155;28;20037;-73
2022/09/28 12:46:41;;;;;;;1.90;0.60;;;;;;;;;;5033793;28;20110;-74
2022/09/28 12:49:28;;;;;;;2.38;0.50;;;;;;;;;;5050144;28;20045;-73
2022/09/28 12:52:03;;;;;;;2.05;0.60;;;14.80;98.40;;;;;;5017272;28;20037;-73
2022/09/28 12:55:07;;;;;;;2.30;0.50;;;15.00;97.60;;;;;;5033583;28;20447;-73
2022/09/28 12:57:44;;;;;;;1.88;0.70;;;15.10;97.30;;;;;;5034628;28;20128;-73
2022/09/28 13:00:22;;;;;;;2.42;0.70;;;15.10;97.70;;;;;;5033302;28;20037;-73
2022/09/28 13:02:54;;;;;;;0.70;0.65;;;;;;;;;;5032347;28;20037;-78
2022/09/28 13:05:29;;;;;;;0.73;0.73;;;;;;;;;;5011529;28;20389;-73
2022/09/28 13:07:55;;;;;;;0.68;0.43;;;;;;;;;;5015818;28;20041;-73
2022/09/28 13:10:41;;;;;;;1.00;0.70;;;;;;;;;;5033350;28;20049;-74
2022/09/28 13:13:26;;;;;;;0.50;0.50;;;;;;;;;;5032236;28;20077;-73
2022/09/28 13:16:06;;;;;;;0.40;0.40;;;16.10;95.90;;;;;;4996832;28;20045;-73
2022/09/28 13:18:38;;;;;;;3.40;0.57;;;;;;;;;;5032473;28;20048;-73
2022/09/28 13:21:18;;;;;;;1.20;0.65;;;16.10;95.60;;;;;;5048805;28;20034;-70
2022/09/28 13:23:47;;;;;;;1.25;0.60;;;15.90;95.70;;;;;;5030569;28;20064;-73
2022/09/28 13:26:30;;;;;;;0.68;0.50;;;15.60;96.10;;;;;;5035368;28;20046;-73
2022/09/28 13:29:08;;;;;;;1.08;0.60;;;15.60;95.60;;;;;;5038763;28;20167;-73
2022/09/28 13:31:42;;;;;;;0.85;0.60;;;15.30;96.00;;;;;;5034829;28;20389;-73
2022/09/28 13:34:12;;;;;;;1.23;0.77;;;;;;;;;;5040745;28;20040;-73
2022/09/28 13:36:39;;;;;;;2.80;0.50;;;15.00;96.00;;;;;;5043882;28;20186;-73
2022/09/28 13:39:43;;;;;;;1.13;0.40;;;15.00;96.70;;;;;;5028249;28;20160;-73
2022/09/28 13:42:09;;;;;;;0.75;0.47;;;;;;;;;;5032571;28;20092;-73
2022/09/28 13:44:49;;;;;;;5.03;0.80;;;15.10;96.70;;;;;;5031729;28;20394;-73
2022/09/28 13:47:48;;;;;;;1.88;0.73;;;15.40;96.90;;;;;;5049500;28;20095;-73
2022/09/28 13:50:26;;;;;;;1.67;0.60;;;15.90;96.10;;;;;;5037854;28;20132;-73
2022/09/28 13:53:04;;;;;;;3.65;0.60;;;;;;;;;;5032169;28;20080;-73
2022/09/28 13:55:48;;;;;;;2.17;0.63;;;16.20;95.10;;;;;;5033165;28;20049;-73
2022/09/28 13:58:20;;;;;;;0.55;0.50;;;;;;;;;;5051818;28;20520;-73
2022/09/28 14:00:57;;;;;;;2.63;0.70;;;16.20;94.70;;;;;;5052335;28;20055;-72
2022/09/28 14:03:44;;;;;;;0.77;0.45;;;16.30;93.40;;;;;;5051947;28;20120;-72
2022/09/28 14:06:31;;;;;;;2.25;0.55;;;16.10;95.00;;;;;;5053348;28;20076;-73
2022/09/28 14:09:11;;;;;;;2.55;0.60;;;16.20;94.10;;;;;;5049810;28;20485;-73
2022/09/28 14:12:01;;;;;;;3.22;0.70;;;16.40;95.10;;;;;;5029331;28;20116;-73
2022/09/28 14:14:50;;;;;;;2.08;0.50;;;;;;;;;;5031995;28;20383;-73
2022/09/28 14:17:41;;;;;;;0.50;0.50;;;16.60;93.90;;;;;;5031114;28;20440;-73
2022/09/28 14:20:13;;;;;;;0.87;0.60;;;16.20;93.90;;;;;;5041731;28;20049;-73
2022/09/28 14:22:39;;;;;;;0.43;0.43;;;;;;;;;;5029863;28;20037;-73
2022/09/28 14:25:27;;;;;;;0.50;0.50;;;16.30;93.70;;;;;;5015359;28;20340;-73
2022/09/28 14:28:05;;;;;;;1.90;0.85;;;15.40;96.00;;;;;;5031471;28;20523;-73
2022/09/28 14:30:40;;;;;;;0.43;0.43;;;17.10;93.40;;;;;;5030113;28;20100;-73
2022/09/28 14:33:21;;;;;;;2.28;1.23;;;16.50;93.50;;;;;;5021091;28;20088;-75
2022/09/28 14:35:47;;;;;;;0.88;0.60;;;;;;;;;;5031054;28;20052;-73
2022/09/28 14:41:24;;;;;;;0.98;0.70;;;16.30;93.50;;;;;;5031622;28;20095;-73